createdAt,value
2022-09-12T00:00:32.109Z,99410.28
2022-09-12T00:01:34.385Z,99402.56
2022-09-12T00:02:36.739Z,99400.38
2022-09-12T00:03:40.083Z,99386.97
2022-09-12T00:04:42.491Z,99405.28
2022-09-12T00:05:47.389Z,99397.84
2022-09-12T00:06:49.654Z,99405.75
2022-09-12T00:07:52.017Z,99388.94
2022-09-12T00:08:58.943Z,99399.00
2022-09-12T00:10:01.175Z,99399.66
2022-09-12T00:11:09.428Z,99397.09
2022-09-12T00:12:11.656Z,99392.72
2022-09-12T00:13:14.068Z,99400.88
2022-09-12T00:14:18.756Z,99398.47
2022-09-12T00:15:20.962Z,99397.97
2022-09-12T00:16:24.977Z,99395.81
2022-09-12T00:17:27.308Z,99390.16
2022-09-12T00:18:29.592Z,99402.88
2022-09-12T00:19:31.971Z,99401.91
2022-09-12T00:20:34.307Z,99401.91
2022-09-12T00:21:38.987Z,99400.16
2022-09-12T00:22:44.481Z,99393.88
2022-09-12T00:23:47.506Z,99402.56
2022-09-12T00:24:49.721Z,99395.75
2022-09-12T00:25:51.941Z,99390.47
2022-09-12T00:26:54.681Z,99392.84
2022-09-12T00:27:57.315Z,99393.72
2022-09-12T00:29:06.888Z,99392.31
2022-09-12T00:30:09.374Z,99385.03
2022-09-12T00:31:14.937Z,99395.41
2022-09-12T00:32:17.239Z,99381.22
2022-09-12T00:33:19.596Z,99386.16
2022-09-12T00:34:21.806Z,99378.84
2022-09-12T00:35:24.087Z,99385.66
2022-09-12T00:36:27.335Z,99381.69
2022-09-12T00:37:29.567Z,99383.91
2022-09-12T00:38:32.240Z,99373.94
2022-09-12T00:39:34.516Z,99380.03
2022-09-12T00:40:36.812Z,99375.34
2022-09-12T00:41:41.704Z,99377.72
2022-09-12T00:42:43.924Z,99375.88
2022-09-12T00:43:48.866Z,99374.19
2022-09-12T00:44:52.861Z,99383.72
2022-09-12T00:45:55.335Z,99372.25
2022-09-12T00:47:11.244Z,99377.59
2022-09-12T00:48:24.082Z,99379.28
2022-09-12T00:49:34.686Z,99373.88
2022-09-12T00:50:37.124Z,99370.97
2022-09-12T00:51:44.043Z,99369.97
2022-09-12T00:52:51.569Z,99373.53
2022-09-12T00:53:55.572Z,99369.25
2022-09-12T00:55:03.850Z,99368.84
2022-09-12T00:56:06.674Z,99371.63
2022-09-12T00:57:11.602Z,99367.28
2022-09-12T00:58:37.699Z,99358.78
2022-09-12T00:59:43.073Z,99364.06
2022-09-12T01:00:47.593Z,99361.91
2022-09-12T01:01:51.704Z,99356.78
2022-09-12T01:02:58.829Z,99355.56
2022-09-12T01:04:02.513Z,99357.97
2022-09-12T01:05:06.939Z,99353.47
2022-09-12T01:06:18.100Z,99352.72
2022-09-12T01:07:21.631Z,99357.13
2022-09-12T01:08:25.980Z,99352.06
2022-09-12T01:09:28.327Z,99351.84
2022-09-12T01:10:33.071Z,99353.25
2022-09-12T01:11:39.024Z,99351.19
2022-09-12T01:12:43.557Z,99355.34
2022-09-12T01:13:46.314Z,99355.13
2022-09-12T01:14:48.571Z,99349.00
2022-09-12T01:15:50.839Z,99347.72
2022-09-12T01:16:53.146Z,99344.94
2022-09-12T01:18:24.840Z,99346.56
2022-09-12T01:19:35.958Z,99352.38
2022-09-12T01:20:38.193Z,99347.47
2022-09-12T01:22:27.810Z,99351.59
2022-09-12T01:23:44.854Z,99344.47
2022-09-12T01:25:25.156Z,99352.31
2022-09-12T01:26:39.107Z,99355.28
2022-09-12T01:27:50.025Z,99356.78
2022-09-12T01:29:06.729Z,99349.88
2022-09-12T01:30:25.209Z,99355.22
2022-09-12T01:31:36.813Z,99340.03
2022-09-12T01:32:53.159Z,99344.41
2022-09-12T01:34:16.437Z,99349.69
2022-09-12T01:35:27.953Z,99351.59
2022-09-12T01:37:02.629Z,99346.19
2022-09-12T01:38:13.839Z,99351.44
2022-09-12T01:39:43.520Z,99347.13
2022-09-12T01:41:09.238Z,99344.63
2022-09-12T01:42:38.544Z,99341.97
2022-09-12T01:44:08.744Z,99342.06
2022-09-12T01:45:28.101Z,99340.28
2022-09-12T01:46:49.195Z,99344.16
2022-09-12T01:48:01.214Z,99333.59
2022-09-12T01:49:15.731Z,99340.72
2022-09-12T01:50:21.649Z,99342.19
2022-09-12T01:51:35.737Z,99331.13
2022-09-12T01:52:44.707Z,99339.16
2022-09-12T01:53:51.970Z,99331.19
2022-09-12T01:55:13.850Z,99336.38
2022-09-12T01:56:22.672Z,99331.97
2022-09-12T01:57:36.355Z,99339.88
2022-09-12T01:58:47.605Z,99330.34
2022-09-12T01:59:54.671Z,99330.09
2022-09-12T02:01:27.872Z,99320.81
2022-09-12T02:02:40.795Z,99325.09
2022-09-12T02:03:49.064Z,99319.81
2022-09-12T02:04:58.117Z,99321.44
2022-09-12T02:06:06.652Z,99317.41
2022-09-12T02:07:18.212Z,99316.47
2022-09-12T02:08:27.004Z,99317.25
2022-09-12T02:09:46.355Z,99304.25
2022-09-12T02:10:56.335Z,99314.38
2022-09-12T02:12:01.388Z,99298.09
2022-09-12T02:13:29.589Z,99316.19
2022-09-12T02:14:37.654Z,99310.13
2022-09-12T02:15:49.381Z,99298.81
2022-09-12T02:17:00.320Z,99300.59
2022-09-12T02:18:05.777Z,99311.91
2022-09-12T02:19:12.728Z,99309.22
2022-09-12T02:20:44.000Z,99293.31
2022-09-12T02:21:45.287Z,99287.44
2022-09-12T02:22:49.653Z,99302.41
2022-09-12T02:23:58.865Z,99295.47
2022-09-12T02:25:02.701Z,99305.78
2022-09-12T02:26:19.037Z,99300.16
2022-09-12T02:27:37.721Z,99299.38
2022-09-12T02:28:43.111Z,99305.00
2022-09-12T02:29:45.802Z,99298.81
2022-09-12T02:31:10.997Z,99297.19
2022-09-12T02:32:35.842Z,99291.63
2022-09-12T02:33:51.862Z,99292.78
2022-09-12T02:35:09.240Z,99294.59
2022-09-12T02:36:39.988Z,99291.63
2022-09-12T02:38:01.745Z,99295.53
2022-09-12T02:39:04.186Z,99302.00
2022-09-12T02:40:08.815Z,99298.81
2022-09-12T02:41:14.084Z,99298.09
2022-09-12T02:42:16.388Z,99293.13
2022-09-12T02:43:18.866Z,99293.19
2022-09-12T02:44:21.617Z,99284.84
2022-09-12T02:45:24.052Z,99286.22
2022-09-12T02:46:37.206Z,99277.69
2022-09-12T02:48:13.423Z,99294.16
2022-09-12T02:49:17.202Z,99278.75
2022-09-12T02:50:20.011Z,99285.09
2022-09-12T02:51:23.760Z,99285.66
2022-09-12T02:52:27.856Z,99282.16
2022-09-12T02:53:30.860Z,99283.72
2022-09-12T02:54:33.519Z,99292.69
2022-09-12T02:55:37.957Z,99287.78
2022-09-12T02:56:43.142Z,99286.34
2022-09-12T02:57:45.410Z,99282.66
2022-09-12T02:58:48.671Z,99287.50
2022-09-12T02:59:57.153Z,99274.84
2022-09-12T03:01:13.934Z,99265.94
2022-09-12T03:02:36.703Z,99276.28
2022-09-12T03:03:56.929Z,99270.66
2022-09-12T03:05:25.142Z,99269.88
2022-09-12T03:06:59.697Z,99269.66
2022-09-12T03:08:33.335Z,99273.28
2022-09-12T03:09:53.805Z,99279.03
2022-09-12T03:11:17.882Z,99274.56
2022-09-12T03:12:43.045Z,99270.94
2022-09-12T03:14:07.158Z,99285.59
2022-09-12T03:15:50.091Z,99273.94
2022-09-12T03:17:12.638Z,99268.28
2022-09-12T03:18:45.971Z,99275.50
2022-09-12T03:20:03.534Z,99271.78
2022-09-12T03:21:24.770Z,99275.13
2022-09-12T03:22:47.102Z,99271.00
2022-09-12T03:24:17.968Z,99269.00
2022-09-12T03:25:28.474Z,99263.94
2022-09-12T03:26:38.167Z,99269.06
2022-09-12T03:27:52.907Z,99268.00
2022-09-12T03:28:56.795Z,99271.50
2022-09-12T03:30:00.095Z,99268.00
2022-09-12T03:31:15.836Z,99271.13
2022-09-12T03:32:18.321Z,99265.50
2022-09-12T03:33:23.085Z,99265.25
2022-09-12T03:34:27.376Z,99273.50
2022-09-12T03:35:29.891Z,99272.00
2022-09-12T03:36:32.349Z,99259.22
2022-09-12T03:37:34.587Z,99270.28
2022-09-12T03:38:36.818Z,99262.38
2022-09-12T03:39:39.199Z,99272.78
2022-09-12T03:40:41.844Z,99268.72
2022-09-12T03:41:44.227Z,99270.63
2022-09-12T03:42:46.562Z,99271.56
2022-09-12T03:43:48.776Z,99270.06
2022-09-12T03:44:51.007Z,99271.22
2022-09-12T03:45:54.073Z,99265.75
2022-09-12T03:46:56.345Z,99264.69
2022-09-12T03:47:58.733Z,99270.50
2022-09-12T03:49:01.079Z,99265.19
2022-09-12T03:50:05.059Z,99266.88
2022-09-12T03:51:09.926Z,99266.06
2022-09-12T03:52:12.551Z,99267.00
2022-09-12T03:53:17.206Z,99256.66
2022-09-12T03:54:19.720Z,99261.06
2022-09-12T03:55:22.901Z,99260.50
2022-09-12T03:56:25.211Z,99265.47
2022-09-12T03:57:27.532Z,99261.78
2022-09-12T03:58:31.388Z,99263.34
2022-09-12T03:59:33.806Z,99257.97
2022-09-12T04:00:36.031Z,99256.84
2022-09-12T04:01:38.368Z,99262.09
2022-09-12T04:02:40.674Z,99259.34
2022-09-12T04:03:44.767Z,99248.13
2022-09-12T04:04:48.857Z,99264.53
2022-09-12T04:05:51.418Z,99255.69
2022-09-12T04:06:53.750Z,99272.34
2022-09-12T04:07:56.171Z,99259.81
2022-09-12T04:08:58.596Z,99258.78
2022-09-12T04:10:01.022Z,99263.91
2022-09-12T04:11:08.560Z,99259.50
2022-09-12T04:12:11.396Z,99260.34
2022-09-12T04:13:13.928Z,99259.88
2022-09-12T04:14:16.290Z,99264.84
2022-09-12T04:15:18.602Z,99257.06
2022-09-12T04:16:21.124Z,99264.06
2022-09-12T04:17:23.466Z,99268.59
2022-09-12T04:18:26.967Z,99265.53
2022-09-12T04:19:29.435Z,99270.16
2022-09-12T04:20:31.898Z,99263.53
2022-09-12T04:21:34.526Z,99259.66
2022-09-12T04:22:36.841Z,99272.94
2022-09-12T04:23:39.179Z,99265.13
2022-09-12T04:24:41.493Z,99272.00
2022-09-12T04:25:43.748Z,99275.50
2022-09-12T04:26:46.136Z,99274.22
2022-09-12T04:27:48.502Z,99266.13
2022-09-12T04:28:54.669Z,99267.13
2022-09-12T04:29:58.216Z,99267.47
2022-09-12T04:31:09.326Z,99268.16
2022-09-12T04:32:11.664Z,99270.88
2022-09-12T04:33:14.585Z,99266.28
2022-09-12T04:34:17.531Z,99259.34
2022-09-12T04:35:19.830Z,99252.38
2022-09-12T04:36:22.891Z,99252.25
2022-09-12T04:37:25.433Z,99246.72
2022-09-12T04:38:27.900Z,99252.53
2022-09-12T04:39:30.377Z,99254.38
2022-09-12T04:40:33.343Z,99254.50
2022-09-12T04:41:38.676Z,99254.59
2022-09-12T04:42:40.923Z,99253.38
2022-09-12T04:43:43.776Z,99254.56
2022-09-12T04:44:46.057Z,99252.09
2022-09-12T04:45:48.352Z,99249.84
2022-09-12T04:46:50.604Z,99250.03
2022-09-12T04:47:52.928Z,99236.47
2022-09-12T04:48:57.030Z,99250.59
2022-09-12T04:49:59.501Z,99241.66
2022-09-12T04:51:14.202Z,99233.19
2022-09-12T04:52:16.636Z,99242.44
2022-09-12T04:53:18.974Z,99235.59
2022-09-12T04:54:21.478Z,99235.59
2022-09-12T04:55:25.548Z,99233.63
2022-09-12T04:56:29.106Z,99231.28
2022-09-12T04:57:31.413Z,99228.50
2022-09-12T04:58:35.102Z,99226.25
2022-09-12T04:59:38.497Z,99227.09
2022-09-12T05:00:40.776Z,99222.47
2022-09-12T05:01:43.493Z,99225.59
2022-09-12T05:02:46.397Z,99222.88
2022-09-12T05:03:49.930Z,99227.84
2022-09-12T05:04:52.626Z,99225.28
2022-09-12T05:05:56.531Z,99231.69
2022-09-12T05:06:59.266Z,99221.22
2022-09-12T05:08:01.774Z,99234.38
2022-09-12T05:09:06.044Z,99232.25
2022-09-12T05:10:09.078Z,99231.53
2022-09-12T05:11:24.608Z,99237.22
2022-09-12T05:12:27.850Z,99235.03
2022-09-12T05:13:30.184Z,99246.28
2022-09-12T05:14:32.952Z,99250.03
2022-09-12T05:15:35.523Z,99246.91
2022-09-12T05:16:37.990Z,99242.66
2022-09-12T05:17:40.366Z,99248.41
2022-09-12T05:18:44.404Z,99248.72
2022-09-12T05:19:48.158Z,99248.47
2022-09-12T05:20:50.517Z,99251.25
2022-09-12T05:21:52.774Z,99253.16
2022-09-12T05:22:55.792Z,99257.94
2022-09-12T05:24:00.120Z,99250.41
2022-09-12T05:25:02.410Z,99255.81
2022-09-12T05:26:06.509Z,99249.97
2022-09-12T05:27:09.549Z,99243.59
2022-09-12T05:28:11.969Z,99247.25
2022-09-12T05:29:14.302Z,99240.25
2022-09-12T05:30:16.707Z,99239.09
2022-09-12T05:31:24.572Z,99246.00
2022-09-12T05:32:30.571Z,99266.47
2022-09-12T05:33:35.150Z,99282.09
2022-09-12T05:34:37.870Z,99283.47
2022-09-12T05:35:40.492Z,99308.38
2022-09-12T05:36:42.716Z,99311.81
2022-09-12T05:37:45.032Z,99314.41
2022-09-12T05:38:47.760Z,99320.75
2022-09-12T05:39:50.074Z,99319.63
2022-09-12T05:40:52.533Z,99321.81
2022-09-12T05:41:54.836Z,99329.22
2022-09-12T05:42:57.595Z,99334.66
2022-09-12T05:44:03.061Z,99335.16
2022-09-12T05:45:05.982Z,99341.16
2022-09-12T05:46:14.289Z,99338.69
2022-09-12T05:47:17.404Z,99342.44
2022-09-12T05:48:20.107Z,99334.13
2022-09-12T05:49:24.739Z,99339.66
2022-09-12T05:50:27.554Z,99346.53
2022-09-12T05:51:33.607Z,99344.75
2022-09-12T05:52:36.886Z,99342.34
2022-09-12T05:53:41.660Z,99342.69
2022-09-12T05:54:44.271Z,99336.50
2022-09-12T05:55:46.800Z,99346.44
2022-09-12T05:56:49.552Z,99341.72
2022-09-12T05:57:51.979Z,99338.53
2022-09-12T05:59:24.109Z,99346.06
2022-09-12T06:00:29.360Z,99349.84
2022-09-12T06:01:36.340Z,99346.31
2022-09-12T06:02:39.620Z,99342.91
2022-09-12T06:03:48.489Z,99338.69
2022-09-12T06:04:51.345Z,99347.28
2022-09-12T06:05:53.986Z,99347.06
2022-09-12T06:06:57.189Z,99346.22
2022-09-12T06:07:59.627Z,99349.50
2022-09-12T06:09:04.004Z,99347.22
2022-09-12T06:10:06.705Z,99344.66
2022-09-12T06:11:11.612Z,99350.28
2022-09-12T06:12:13.881Z,99353.06
2022-09-12T06:13:16.143Z,99344.53
2022-09-12T06:14:19.390Z,99352.47
2022-09-12T06:15:21.686Z,99351.91
2022-09-12T06:16:29.901Z,99358.56
2022-09-12T06:17:32.560Z,99357.75
2022-09-12T06:18:35.905Z,99355.72
2022-09-12T06:19:38.151Z,99353.28
2022-09-12T06:20:40.557Z,99350.78
2022-09-12T06:21:43.086Z,99351.47
2022-09-12T06:22:45.693Z,99342.69
2022-09-12T06:23:48.612Z,99350.13
2022-09-12T06:24:53.744Z,99336.72
2022-09-12T06:25:58.439Z,99332.84
2022-09-12T06:27:02.303Z,99331.75
2022-09-12T06:28:04.813Z,99330.81
2022-09-12T06:29:08.008Z,99342.19
2022-09-12T06:30:11.222Z,99335.59
2022-09-12T06:31:16.261Z,99327.44
2022-09-12T06:32:18.488Z,99330.34
2022-09-12T06:33:20.869Z,99327.88
2022-09-12T06:34:23.156Z,99326.97
2022-09-12T06:35:25.428Z,99324.97
2022-09-12T06:36:31.894Z,99321.69
2022-09-12T06:37:34.170Z,99327.94
2022-09-12T06:38:36.793Z,99319.06
2022-09-12T06:39:39.211Z,99319.63
2022-09-12T06:40:46.795Z,99316.97
2022-09-12T06:41:51.252Z,99323.16
2022-09-12T06:42:53.563Z,99318.94
2022-09-12T06:44:07.536Z,99320.22
2022-09-12T06:45:11.423Z,99322.56
2022-09-12T06:46:13.639Z,99312.44
2022-09-12T06:47:16.042Z,99322.44
2022-09-12T06:48:18.305Z,99312.78
2022-09-12T06:49:20.542Z,99305.88
2022-09-12T06:50:22.975Z,99318.59
2022-09-12T06:51:26.242Z,99315.53
2022-09-12T06:52:29.181Z,99299.72
2022-09-12T06:53:39.246Z,99314.81
2022-09-12T06:54:42.111Z,99317.13
2022-09-12T06:55:44.268Z,99313.84
2022-09-12T06:56:46.550Z,99316.22
2022-09-12T06:57:48.771Z,99313.09
2022-09-12T06:58:52.354Z,99326.19
2022-09-12T06:59:54.595Z,99319.91
2022-09-12T07:01:07.988Z,99317.81
2022-09-12T07:02:10.471Z,99320.88
2022-09-12T07:03:12.765Z,99322.38
2022-09-12T07:04:15.071Z,99321.13
2022-09-12T07:05:17.368Z,99330.66
2022-09-12T07:06:21.603Z,99323.44
2022-09-12T07:07:24.160Z,99324.81
2022-09-12T07:08:26.534Z,99327.22
2022-09-12T07:09:30.675Z,99325.38
2022-09-12T07:10:32.896Z,99331.94
2022-09-12T07:11:37.968Z,99329.41
2022-09-12T07:12:40.229Z,99327.47
2022-09-12T07:13:44.225Z,99320.75
2022-09-12T07:14:46.615Z,99324.28
2022-09-12T07:15:49.400Z,99326.75
2022-09-12T07:16:51.736Z,99326.03
2022-09-12T07:17:54.375Z,99321.25
2022-09-12T07:19:01.853Z,99322.53
2022-09-12T07:20:04.717Z,99325.56
2022-09-12T07:21:11.363Z,99333.00
2022-09-12T07:22:14.043Z,99324.28
2022-09-12T07:23:16.580Z,99330.16
2022-09-12T07:24:19.061Z,99328.56
2022-09-12T07:25:21.469Z,99323.34
2022-09-12T07:26:25.586Z,99330.03
2022-09-12T07:27:28.104Z,99332.59
2022-09-12T07:28:32.520Z,99333.28
2022-09-12T07:29:37.617Z,99326.13
2022-09-12T07:30:40.809Z,99319.41
2022-09-12T07:31:43.435Z,99320.72
2022-09-12T07:32:47.008Z,99326.22
2022-09-12T07:33:54.403Z,99324.34
2022-09-12T07:34:57.510Z,99329.25
2022-09-12T07:36:05.097Z,99335.22
2022-09-12T07:37:07.683Z,99323.69
2022-09-12T07:38:10.159Z,99339.38
2022-09-12T07:39:12.645Z,99326.25
2022-09-12T07:40:15.241Z,99324.81
2022-09-12T07:41:23.639Z,99319.59
2022-09-12T07:42:26.292Z,99327.94
2022-09-12T07:43:28.732Z,99327.25
2022-09-12T07:44:31.089Z,99329.94
2022-09-12T07:45:33.814Z,99319.69
2022-09-12T07:46:36.526Z,99322.53
2022-09-12T07:47:40.874Z,99323.81
2022-09-12T07:48:44.665Z,99316.66
2022-09-12T07:49:47.799Z,99320.44
2022-09-12T07:50:59.843Z,99325.56
2022-09-12T07:52:02.665Z,99316.41
2022-09-12T07:53:06.182Z,99321.34
2022-09-12T07:54:09.473Z,99322.53
2022-09-12T07:55:12.123Z,99322.91
2022-09-12T07:56:16.849Z,99324.84
2022-09-12T07:57:19.509Z,99326.84
2022-09-12T07:58:23.285Z,99323.41
2022-09-12T07:59:48.870Z,99324.72
2022-09-12T08:00:48.347Z,99336.50
2022-09-12T08:01:51.772Z,99338.94
2022-09-12T08:02:54.460Z,99335.25
2022-09-12T08:03:59.869Z,99334.22
2022-09-12T08:05:02.621Z,99334.66
2022-09-12T08:06:09.868Z,99326.31
2022-09-12T08:07:12.868Z,99329.44
2022-09-12T08:08:15.376Z,99328.84
2022-09-12T08:09:17.957Z,99331.13
2022-09-12T08:10:20.641Z,99322.88
2022-09-12T08:11:24.215Z,99317.25
2022-09-12T08:12:28.610Z,99327.50
2022-09-12T08:13:31.993Z,99322.09
2022-09-12T08:14:34.525Z,99331.78
2022-09-12T08:15:37.036Z,99318.97
2022-09-12T08:16:39.639Z,99330.41
2022-09-12T08:17:42.019Z,99323.22
2022-09-12T08:18:44.937Z,99321.38
2022-09-12T08:19:48.243Z,99310.97
2022-09-12T08:20:59.836Z,99307.75
2022-09-12T08:22:03.066Z,99314.59
2022-09-12T08:23:05.567Z,99315.44
2022-09-12T08:24:08.941Z,99314.75
2022-09-12T08:25:11.809Z,99325.88
2022-09-12T08:26:14.690Z,99322.28
2022-09-12T08:27:17.264Z,99323.69
2022-09-12T08:28:19.865Z,99320.53
2022-09-12T08:29:22.448Z,99329.19
2022-09-12T08:30:24.926Z,99322.63
2022-09-12T08:31:28.061Z,99322.84
2022-09-12T08:32:30.719Z,99326.50
2022-09-12T08:33:33.789Z,99328.88
2022-09-12T08:34:36.237Z,99325.69
2022-09-12T08:35:38.724Z,99321.22
2022-09-12T08:36:41.390Z,99331.19
2022-09-12T08:37:46.433Z,99322.22
2022-09-12T08:38:51.640Z,99319.50
2022-09-12T08:39:54.267Z,99321.06
2022-09-12T08:41:19.403Z,99321.91
2022-09-12T08:42:43.944Z,99327.66
2022-09-12T08:44:23.598Z,99322.72
2022-09-12T08:45:33.088Z,99326.44
2022-09-12T08:46:52.694Z,99323.66
2022-09-12T08:47:56.442Z,99325.16
2022-09-12T08:49:01.501Z,99321.78
2022-09-12T08:50:15.213Z,99327.34
2022-09-12T08:51:19.690Z,99321.75
2022-09-12T08:52:25.795Z,99323.19
2022-09-12T08:53:30.163Z,99318.06
2022-09-12T08:54:33.109Z,99319.31
2022-09-12T08:55:56.024Z,99316.69
2022-09-12T08:57:01.653Z,99318.63
2022-09-12T08:58:20.054Z,99320.78
2022-09-12T08:59:22.387Z,99329.66
2022-09-12T09:00:33.013Z,99322.41
2022-09-12T09:01:43.212Z,99318.84
2022-09-12T09:02:45.885Z,99324.06
2022-09-12T09:04:01.345Z,99323.84
2022-09-12T09:05:30.376Z,99321.41
2022-09-12T09:07:11.307Z,99325.84
2022-09-12T09:08:26.925Z,99329.25
2022-09-12T09:09:43.195Z,99326.47
2022-09-12T09:11:13.185Z,99312.38
2022-09-12T09:12:39.376Z,99330.72
2022-09-12T09:14:06.397Z,99324.97
2022-09-12T09:15:35.205Z,99324.72
2022-09-12T09:16:46.385Z,99329.25
2022-09-12T09:17:57.749Z,99327.97
2022-09-12T09:19:06.166Z,99332.81
2022-09-12T09:20:17.618Z,99317.75
2022-09-12T09:21:32.218Z,99313.28
2022-09-12T09:22:43.319Z,99309.50
2022-09-12T09:23:50.980Z,99320.00
2022-09-12T09:24:58.261Z,99320.13
2022-09-12T09:26:17.007Z,99321.97
2022-09-12T09:27:47.455Z,99323.72
2022-09-12T09:28:58.845Z,99321.56
2022-09-12T09:30:02.501Z,99321.66
2022-09-12T09:31:06.841Z,99323.91
2022-09-12T09:32:18.846Z,99320.44
2022-09-12T09:33:28.338Z,99318.06
2022-09-12T09:34:34.221Z,99325.56
2022-09-12T09:35:45.452Z,99323.56
2022-09-12T09:37:17.855Z,99326.16
2022-09-12T09:39:33.959Z,99318.22
2022-09-12T09:40:42.423Z,99320.91
2022-09-12T09:42:06.355Z,99326.75
2022-09-12T09:43:23.024Z,99317.19
2022-09-12T09:44:29.089Z,99324.50
2022-09-12T09:45:31.762Z,99326.13
2022-09-12T09:46:34.089Z,99322.91
2022-09-12T09:47:36.504Z,99321.03
2022-09-12T09:48:42.405Z,99328.47
2022-09-12T09:49:45.008Z,99323.75
2022-09-12T09:50:49.288Z,99326.09
2022-09-12T09:51:51.891Z,99319.22
2022-09-12T09:54:03.603Z,99319.00
2022-09-12T09:55:12.088Z,99318.88
2022-09-12T09:56:28.590Z,99326.63
2022-09-12T09:57:37.071Z,99325.22
2022-09-12T09:58:40.324Z,99314.69
2022-09-12T09:59:42.722Z,99329.44
2022-09-12T10:00:46.110Z,99329.34
2022-09-12T10:01:54.647Z,99326.81
2022-09-12T10:03:11.343Z,99318.09
2022-09-12T10:04:26.555Z,99304.38
2022-09-12T10:05:31.075Z,99320.56
2022-09-12T10:06:35.457Z,99309.25
2022-09-12T10:07:38.172Z,99314.28
2022-09-12T10:08:41.186Z,99310.97
2022-09-12T10:10:14.639Z,99315.31
2022-09-12T10:11:22.895Z,99306.50
2022-09-12T10:12:28.689Z,99315.19
2022-09-12T10:13:36.330Z,99313.34
2022-09-12T10:14:41.157Z,99330.34
2022-09-12T10:15:57.837Z,99317.69
2022-09-12T10:17:01.148Z,99314.34
2022-09-12T10:18:04.483Z,99321.13
2022-09-12T10:19:22.606Z,99304.66
2022-09-12T10:20:54.761Z,99304.59
2022-09-12T10:21:57.416Z,99293.78
2022-09-12T10:23:02.153Z,99297.69
2022-09-12T10:24:13.774Z,99306.31
2022-09-12T10:25:19.255Z,99301.84
2022-09-12T10:26:22.013Z,99298.28
2022-09-12T10:27:31.572Z,99294.56
2022-09-12T10:28:53.943Z,99306.44
2022-09-12T10:30:19.090Z,99300.72
2022-09-12T10:31:36.093Z,99303.47
2022-09-12T10:32:42.886Z,99299.16
2022-09-12T10:33:52.764Z,99300.97
2022-09-12T10:35:02.465Z,99295.69
2022-09-12T10:36:05.317Z,99288.19
2022-09-12T10:37:17.269Z,99299.75
2022-09-12T10:38:32.551Z,99293.34
2022-09-12T10:39:38.516Z,99291.16
2022-09-12T10:40:44.158Z,99286.00
2022-09-12T10:41:47.188Z,99291.19
2022-09-12T10:42:52.623Z,99289.63
2022-09-12T10:44:07.951Z,99288.47
2022-09-12T10:45:22.814Z,99295.91
2022-09-12T10:46:29.628Z,99286.72
2022-09-12T10:47:32.732Z,99284.31
2022-09-12T10:48:36.298Z,99278.41
2022-09-12T10:49:40.410Z,99284.84
2022-09-12T10:50:43.422Z,99280.59
2022-09-12T10:51:46.162Z,99276.28
2022-09-12T10:52:48.834Z,99279.97
2022-09-12T10:53:54.842Z,99279.09
2022-09-12T10:54:58.138Z,99280.91
2022-09-12T10:56:26.889Z,99279.78
2022-09-12T10:57:47.995Z,99279.97
2022-09-12T10:59:20.373Z,99262.19
2022-09-12T11:00:27.999Z,99266.47
2022-09-12T11:01:30.528Z,99248.91
2022-09-12T11:02:54.975Z,99261.53
2022-09-12T11:04:26.710Z,99264.81
2022-09-12T11:05:58.467Z,99266.16
2022-09-12T11:07:06.934Z,99270.09
2022-09-12T11:08:21.185Z,99262.19
2022-09-12T11:09:23.553Z,99263.31
2022-09-12T11:10:51.797Z,99261.47
2022-09-12T11:12:28.496Z,99252.59
2022-09-12T11:13:46.432Z,99250.56
2022-09-12T11:15:01.070Z,99258.66
2022-09-12T11:16:19.990Z,99253.28
2022-09-12T11:17:52.102Z,99251.22
2022-09-12T11:19:31.427Z,99256.97
2022-09-12T11:20:59.121Z,99257.50
2022-09-12T11:22:15.211Z,99248.34
2022-09-12T11:23:46.148Z,99248.25
2022-09-12T11:25:13.134Z,99244.25
2022-09-12T11:26:33.702Z,99249.34
2022-09-12T11:27:57.950Z,99245.22
2022-09-12T11:29:21.256Z,99241.66
2022-09-12T11:30:23.867Z,99246.19
2022-09-12T11:31:50.735Z,99240.13
2022-09-12T11:33:01.716Z,99244.50
2022-09-12T11:34:09.576Z,99233.97
2022-09-12T11:35:27.649Z,99243.84
2022-09-12T11:36:48.191Z,99242.38
2022-09-12T11:37:56.535Z,99246.72
2022-09-12T11:39:03.898Z,99243.13
2022-09-12T11:40:39.103Z,99236.53
2022-09-12T11:41:51.268Z,99232.06
2022-09-12T11:43:02.105Z,99237.97
2022-09-12T11:44:23.334Z,99238.00
2022-09-12T11:45:32.782Z,99235.81
2022-09-12T11:46:40.915Z,99231.63
2022-09-12T11:47:49.176Z,99225.25
2022-09-12T11:48:59.974Z,99225.66
2022-09-12T11:50:16.021Z,99224.91
2022-09-12T11:51:27.838Z,99229.72
2022-09-12T11:52:37.951Z,99226.03
2022-09-12T11:53:44.116Z,99219.72
2022-09-12T11:55:00.975Z,99228.31
2022-09-12T11:56:15.904Z,99219.28
2022-09-12T11:57:29.088Z,99221.81
2022-09-12T11:58:31.889Z,99223.34
2022-09-12T11:59:34.567Z,99215.22
2022-09-12T12:00:53.601Z,99220.78
2022-09-12T12:02:00.280Z,99222.63
2022-09-12T12:03:34.601Z,99217.84
2022-09-12T12:04:44.708Z,99221.31
2022-09-12T12:05:55.438Z,99223.00
2022-09-12T12:07:05.398Z,99214.44
2022-09-12T12:08:08.144Z,99217.66
2022-09-12T12:09:13.328Z,99213.28
2022-09-12T12:10:44.194Z,99206.47
2022-09-12T12:11:57.653Z,99217.28
2022-09-12T12:13:03.357Z,99206.75
2022-09-12T12:14:19.924Z,99217.56
2022-09-12T12:15:25.000Z,99213.34
2022-09-12T12:16:31.604Z,99204.75
2022-09-12T12:17:34.879Z,99215.13
2022-09-12T12:18:39.032Z,99211.06
2022-09-12T12:19:43.106Z,99203.50
2022-09-12T12:20:45.810Z,99205.13
2022-09-12T12:21:50.593Z,99209.03
2022-09-12T12:22:54.550Z,99204.47
2022-09-12T12:24:07.364Z,99201.97
2022-09-12T12:25:12.476Z,99193.41
2022-09-12T12:26:40.828Z,99200.47
2022-09-12T12:27:51.506Z,99185.63
2022-09-12T12:28:54.135Z,99189.91
2022-09-12T12:29:57.130Z,99198.94
2022-09-12T12:31:01.402Z,99198.75
2022-09-12T12:32:03.724Z,99198.69
2022-09-12T12:33:09.971Z,99195.09
2022-09-12T12:34:28.451Z,99194.53
2022-09-12T12:35:42.500Z,99201.38
2022-09-12T12:36:44.936Z,99188.09
2022-09-12T12:37:52.060Z,99182.94
2022-09-12T12:38:55.036Z,99189.78
2022-09-12T12:40:01.203Z,99186.41
2022-09-12T12:41:18.571Z,99182.88
2022-09-12T12:42:32.807Z,99183.78
2022-09-12T12:43:37.782Z,99179.44
2022-09-12T12:44:45.777Z,99175.28
2022-09-12T12:45:49.663Z,99174.75
2022-09-12T12:47:21.224Z,99164.63
2022-09-12T12:48:24.332Z,99171.19
2022-09-12T12:49:29.842Z,99162.22
2022-09-12T12:50:32.640Z,99162.66
2022-09-12T12:51:53.533Z,99164.97
2022-09-12T12:53:03.663Z,99168.41
2022-09-12T12:54:49.624Z,99166.09
2022-09-12T12:55:54.584Z,99162.50
2022-09-12T12:57:26.123Z,99172.31
2022-09-12T12:58:40.675Z,99165.13
2022-09-12T12:59:56.224Z,99157.97
2022-09-12T13:01:20.817Z,99165.03
2022-09-12T13:02:51.162Z,99154.94
2022-09-12T13:03:59.739Z,99152.19
2022-09-12T13:05:24.104Z,99153.44
2022-09-12T13:06:35.096Z,99145.63
2022-09-12T13:07:40.249Z,99153.63
2022-09-12T13:08:55.899Z,99151.47
2022-09-12T13:10:00.679Z,99141.69
2022-09-12T13:11:27.075Z,99149.59
2022-09-12T13:12:37.470Z,99151.44
2022-09-12T13:13:50.661Z,99146.81
2022-09-12T13:14:59.703Z,99138.59
2022-09-12T13:16:02.492Z,99140.22
2022-09-12T13:17:07.810Z,99143.47
2022-09-12T13:18:18.840Z,99146.66
2022-09-12T13:19:29.263Z,99136.00
2022-09-12T13:20:44.757Z,99142.75
2022-09-12T13:21:59.853Z,99143.22
2022-09-12T13:23:02.315Z,99140.25
2022-09-12T13:24:13.405Z,99139.78
2022-09-12T13:25:26.883Z,99136.66
2022-09-12T13:26:34.950Z,99141.59